Dodge City Regional Airport
KDDC : now visible

Airfield :











YOU CAN JOIN US ON...

 
LOGIN :

Register | Disclaimer

   EN    FR    IT 

 









Legend :    VFR   Marginal VFR   IFR   Intensive IFR   Very Intensive IFR
Visi :
Ceiling :
>= 8 km
>= 3000ft
5 to 8 km
1000 to 3000 ft
1500m to 5 km
500 to 1000 ft
800 to 1500m
200 to 500 ft
< 800m
< 200 ft
Symbols :   Thunderstorms  Fog  Heavy snow  Heavy precipitations  Wind > 20 kt






- Airport Elevation : 2594 ft
- IATA code : DDC


KDDC - Dodge City Regional

CURRENT METAR :
  • 082052Z AUTO 06003KT 10SM CLR 16/M03 A2967 RMK AO2 SLP043 T01561028 56026

EXPIRED METARs :
  • 081952Z AUTO 04007KT 10SM CLR 16/M03 A2968 RMK AO2 SLP046 T01561028
  • 081852Z AUTO 02006KT 10SM CLR 16/M02 A2972 RMK AO2 SLP058 T01561017

TAF KDDC
Valid from the 08 at 18:00 until the 09 at 18:00 UTC


081720Z 0818/0918 VRB04KT P6SM BKN250
FM091200 35020G28KT P6SM BKN120



MET'MAP, your aeronautical weather chart ! - Copyright ORBIFLY December 2007 - Disclaimer

ORBIFLY MET'MAP TEAM :

Programming & Development : Alexandra Zaïnal
Concept & original design : Baudouin d'Aumeries
Assistance for programming : Marc-Olivier Méhu
Technical & hardware support : Manuel Goepfert

Contact : metmap@orbifly.com




SOURCES & CREDITS :

   NOAA       Earth
Advisory